DKH1945 ZGSZ-ZPLJ
Flight info
| Callsign | DKH1945 |
|---|---|
| Flight time | 1h 30m |
| Altitude | 34100 |
| Route | ZUH R200 BIGRO X299 ALEKI R339 BSE A599 SGM BUBSU W162 CEH |
| Aircraft | A320/M-SDE3FGHIRWY/LB1 |
Departure
| Time | 2026-04-15 13:07 |
|---|---|
| Airport | Shenzhen Bao'an International Airport (ZGSZ) |
Arrival
| Time | 2026-04-15 14:37 |
|---|---|
| Airport | Lijiang Sanyi International Airport (ZPLJ) |
| Time | Latitude | Longitude | Altitude | Speed | Heading |
|---|---|---|---|---|---|
| 2026-04-15 11:11 | 22.63159 | 113.80466 | -6 ft | 0 kts | 3° |
| 2026-04-15 11:31 | 22.63158 | 113.80466 | 16 ft | 0 kts | 3° |
| 2026-04-15 11:44 | 22.63159 | 113.80466 | 16 ft | 0 kts | 3° |
| 2026-04-15 11:55 | 22.63158 | 113.80466 | 16 ft | 0 kts | 3° |
| 2026-04-15 12:33 | 22.63157 | 113.80466 | 15 ft | 0 kts | 3° |
| 2026-04-15 12:50 | 22.63155 | 113.80466 | 15 ft | 2 kts | 3° |
| 2026-04-15 12:50 | 22.63130 | 113.80465 | 18 ft | 4 kts | 3° |
| 2026-04-15 12:50 | 22.63103 | 113.80463 | 16 ft | 4 kts | 2° |
| 2026-04-15 12:50 | 22.63076 | 113.80462 | 17 ft | 4 kts | 357° |
| 2026-04-15 12:51 | 22.63049 | 113.80466 | 16 ft | 4 kts | 341° |
| 2026-04-15 12:51 | 22.63035 | 113.80472 | 18 ft | 1 kts | 332° |
| 2026-04-15 12:54 | 22.63036 | 113.80471 | 17 ft | 2 kts | 332° |
| 2026-04-15 12:54 | 22.63060 | 113.80452 | 16 ft | 6 kts | 308° |
| 2026-04-15 12:54 | 22.63050 | 113.80392 | 16 ft | 11 kts | 241° |
| 2026-04-15 12:55 | 22.63010 | 113.80310 | 15 ft | 13 kts | 242° |
| 2026-04-15 12:55 | 22.62968 | 113.80219 | 15 ft | 13 kts | 244° |
| 2026-04-15 12:55 | 22.62982 | 113.80162 | 17 ft | 7 kts | 317° |
| 2026-04-15 12:55 | 22.63023 | 113.80142 | 15 ft | 6 kts | 337° |
| 2026-04-15 12:56 | 22.63066 | 113.80119 | 15 ft | 8 kts | 331° |
| 2026-04-15 12:56 | 22.63124 | 113.80086 | 15 ft | 11 kts | 333° |
| 2026-04-15 12:56 | 22.63200 | 113.80044 | 15 ft | 14 kts | 333° |
| 2026-04-15 12:56 | 22.63296 | 113.79990 | 15 ft | 17 kts | 324° |
| 2026-04-15 12:57 | 22.63407 | 113.79930 | 15 ft | 19 kts | 333° |
| 2026-04-15 12:57 | 22.63537 | 113.79857 | 15 ft | 22 kts | 332° |
| 2026-04-15 12:57 | 22.63675 | 113.79784 | 15 ft | 22 kts | 333° |
| 2026-04-15 12:57 | 22.63812 | 113.79709 | 15 ft | 22 kts | 333° |
| 2026-04-15 12:58 | 22.63943 | 113.79636 | 15 ft | 20 kts | 332° |
| 2026-04-15 12:58 | 22.64064 | 113.79570 | 15 ft | 18 kts | 333° |
| 2026-04-15 12:58 | 22.64171 | 113.79512 | 15 ft | 16 kts | 333° |
| 2026-04-15 12:58 | 22.64265 | 113.79460 | 15 ft | 14 kts | 333° |
| 2026-04-15 12:59 | 22.64427 | 113.79371 | 15 ft | 16 kts | 333° |
| 2026-04-15 12:59 | 22.64544 | 113.79306 | 15 ft | 22 kts | 333° |
| 2026-04-15 12:59 | 22.64697 | 113.79222 | 15 ft | 26 kts | 333° |
| 2026-04-15 13:00 | 22.64864 | 113.79131 | 15 ft | 27 kts | 333° |
| 2026-04-15 13:00 | 22.65034 | 113.79036 | 16 ft | 28 kts | 332° |
| 2026-04-15 13:00 | 22.65212 | 113.78937 | 16 ft | 29 kts | 333° |
| 2026-04-15 13:00 | 22.65395 | 113.78838 | 16 ft | 30 kts | 334° |
| 2026-04-15 13:01 | 22.65583 | 113.78735 | 16 ft | 31 kts | 333° |
| 2026-04-15 13:01 | 22.65776 | 113.78630 | 16 ft | 30 kts | 333° |
| 2026-04-15 13:01 | 22.65911 | 113.78556 | 16 ft | 18 kts | 333° |
| 2026-04-15 13:01 | 22.65965 | 113.78526 | 16 ft | 2 kts | 333° |
| 2026-04-15 13:02 | 22.65203 | 113.78945 | 16 ft | 0 kts | 333° |
| 2026-04-15 13:02 | 22.65221 | 113.78935 | 16 ft | 1 kts | 333° |
| 2026-04-15 13:02 | 22.65233 | 113.78929 | 16 ft | 1 kts | 333° |
| 2026-04-15 13:02 | 22.65237 | 113.78926 | 16 ft | 0 kts | 333° |
| 2026-04-15 13:03 | 22.65267 | 113.78909 | 16 ft | 10 kts | 332° |
| 2026-04-15 13:03 | 22.65345 | 113.78866 | 16 ft | 15 kts | 333° |
| 2026-04-15 13:03 | 22.65442 | 113.78814 | 16 ft | 15 kts | 333° |
| 2026-04-15 13:03 | 22.65522 | 113.78768 | 16 ft | 6 kts | 326° |
| 2026-04-15 13:04 | 22.65532 | 113.78734 | 16 ft | 4 kts | 260° |
| 2026-04-15 13:04 | 22.65521 | 113.78709 | 17 ft | 4 kts | 243° |
| 2026-04-15 13:04 | 22.65502 | 113.78670 | 16 ft | 6 kts | 242° |
| 2026-04-15 13:04 | 22.65486 | 113.78633 | 16 ft | 5 kts | 244° |
| 2026-04-15 13:05 | 22.65474 | 113.78606 | 16 ft | 4 kts | 244° |
| 2026-04-15 13:05 | 22.65451 | 113.78555 | 16 ft | 11 kts | 244° |
| 2026-04-15 13:05 | 22.65399 | 113.78511 | 16 ft | 10 kts | 156° |
| 2026-04-15 13:05 | 22.65336 | 113.78549 | 16 ft | 11 kts | 153° |
| 2026-04-15 13:06 | 22.65212 | 113.78618 | 16 ft | 39 kts | 153° |
| 2026-04-15 13:06 | 22.64764 | 113.78865 | 16 ft | 103 kts | 153° |
| 2026-04-15 13:06 | 22.63964 | 113.79303 | 16 ft | 153 kts | 152° |
| 2026-04-15 13:06 | 22.62945 | 113.79868 | 318 ft | 169 kts | 154° |
| 2026-04-15 13:07 | 22.61891 | 113.80420 | 1007 ft | 168 kts | 163° |
| 2026-04-15 13:07 | 22.60749 | 113.80667 | 1652 ft | 167 kts | 173° |
| 2026-04-15 13:07 | 22.59600 | 113.80828 | 2245 ft | 167 kts | 175° |
| 2026-04-15 13:07 | 22.58444 | 113.80984 | 2794 ft | 168 kts | 175° |
| 2026-04-15 13:08 | 22.57278 | 113.81146 | 3266 ft | 174 kts | 175° |
| 2026-04-15 13:08 | 22.55991 | 113.81330 | 3451 ft | 198 kts | 174° |
| 2026-04-15 13:08 | 22.54545 | 113.81546 | 3689 ft | 221 kts | 174° |
| 2026-04-15 13:08 | 22.52954 | 113.81793 | 4092 ft | 238 kts | 173° |
| 2026-04-15 13:09 | 22.51290 | 113.81932 | 4747 ft | 241 kts | 189° |
| 2026-04-15 13:09 | 22.49742 | 113.81290 | 5403 ft | 243 kts | 218° |
| 2026-04-15 13:09 | 22.48413 | 113.78599 | 6581 ft | 247 kts | 263° |
| 2026-04-15 13:10 | 22.48142 | 113.75012 | 7898 ft | 252 kts | 264° |
| 2026-04-15 13:10 | 22.47800 | 113.70706 | 9446 ft | 258 kts | 264° |
| 2026-04-15 13:10 | 22.47641 | 113.68764 | 10083 ft | 261 kts | 264° |
| 2026-04-15 13:10 | 22.47414 | 113.66006 | 10964 ft | 263 kts | 264° |
| 2026-04-15 13:11 | 22.47098 | 113.62049 | 12246 ft | 266 kts | 263° |
| 2026-04-15 13:11 | 22.45994 | 113.58282 | 13449 ft | 270 kts | 235° |
| 2026-04-15 13:11 | 22.43023 | 113.55307 | 13723 ft | 312 kts | 221° |
| 2026-04-15 13:11 | 22.39623 | 113.52174 | 14030 ft | 343 kts | 222° |
| 2026-04-15 13:12 | 22.35361 | 113.49873 | 14933 ft | 358 kts | 195° |
| 2026-04-15 13:12 | 22.30454 | 113.48697 | 15915 ft | 365 kts | 195° |
| 2026-04-15 13:12 | 22.25527 | 113.47232 | 16882 ft | 368 kts | 208° |
| 2026-04-15 13:12 | 22.21576 | 113.43816 | 17839 ft | 366 kts | 234° |
| 2026-04-15 13:13 | 22.19316 | 113.38901 | 18717 ft | 370 kts | 249° |
| 2026-04-15 13:13 | 22.17404 | 113.33707 | 19574 ft | 375 kts | 249° |
| 2026-04-15 13:13 | 22.15436 | 113.28450 | 20429 ft | 380 kts | 249° |
| 2026-04-15 13:13 | 22.13438 | 113.23126 | 21287 ft | 386 kts | 248° |
| 2026-04-15 13:14 | 22.11263 | 113.17795 | 22132 ft | 391 kts | 246° |
| 2026-04-15 13:14 | 22.08974 | 113.12424 | 22945 ft | 396 kts | 246° |
| 2026-04-15 13:14 | 22.06681 | 113.06989 | 23671 ft | 401 kts | 246° |
| 2026-04-15 13:14 | 22.04377 | 113.01469 | 24317 ft | 405 kts | 246° |
| 2026-04-15 13:15 | 22.02115 | 112.95892 | 24967 ft | 408 kts | 248° |
| 2026-04-15 13:15 | 21.99939 | 112.90221 | 25601 ft | 410 kts | 248° |
| 2026-04-15 13:15 | 21.97749 | 112.84528 | 26206 ft | 413 kts | 248° |
| 2026-04-15 13:15 | 21.95499 | 112.78797 | 26793 ft | 416 kts | 247° |
| 2026-04-15 13:16 | 21.93176 | 112.73065 | 27373 ft | 419 kts | 247° |
| 2026-04-15 13:16 | 21.90831 | 112.67293 | 27915 ft | 422 kts | 247° |
| 2026-04-15 13:16 | 21.88476 | 112.61474 | 28469 ft | 425 kts | 247° |
| 2026-04-15 13:16 | 21.86113 | 112.55634 | 28971 ft | 428 kts | 247° |
| 2026-04-15 13:17 | 21.82668 | 112.46993 | 29668 ft | 431 kts | 247° |
| 2026-04-15 13:17 | 21.77934 | 112.35032 | 30422 ft | 436 kts | 247° |
| 2026-04-15 13:17 | 21.73177 | 112.23084 | 31423 ft | 433 kts | 247° |
| 2026-04-15 13:17 | 21.68441 | 112.11224 | 32432 ft | 429 kts | 247° |
| 2026-04-15 13:18 | 21.63740 | 111.99466 | 33432 ft | 427 kts | 247° |
| 2026-04-15 13:18 | 21.61652 | 111.94254 | 33879 ft | 425 kts | 247° |
| 2026-04-15 13:18 | 21.59321 | 111.88447 | 33998 ft | 420 kts | 247° |
| 2026-04-15 13:19 | 21.57550 | 111.82518 | 33997 ft | 418 kts | 262° |
| 2026-04-15 13:19 | 21.57690 | 111.76286 | 34001 ft | 420 kts | 275° |
| 2026-04-15 13:20 | 21.58388 | 111.70054 | 34003 ft | 420 kts | 275° |
| 2026-04-15 13:20 | 21.59080 | 111.63831 | 34003 ft | 420 kts | 275° |
| 2026-04-15 13:21 | 21.59767 | 111.57604 | 34005 ft | 420 kts | 275° |
| 2026-04-15 13:21 | 21.60438 | 111.51424 | 34004 ft | 419 kts | 275° |
| 2026-04-15 13:22 | 21.61110 | 111.45197 | 33998 ft | 419 kts | 275° |
| 2026-04-15 13:22 | 21.61781 | 111.38978 | 33999 ft | 419 kts | 275° |
| 2026-04-15 13:23 | 21.62447 | 111.32757 | 33995 ft | 419 kts | 275° |
| 2026-04-15 13:23 | 21.63115 | 111.26534 | 33993 ft | 419 kts | 275° |
| 2026-04-15 13:24 | 21.63783 | 111.20311 | 33993 ft | 419 kts | 275° |
| 2026-04-15 13:24 | 21.64450 | 111.14098 | 33989 ft | 419 kts | 275° |
| 2026-04-15 13:25 | 21.65112 | 111.07878 | 33986 ft | 419 kts | 275° |
| 2026-04-15 13:25 | 21.65763 | 111.01663 | 33983 ft | 418 kts | 275° |
| 2026-04-15 13:26 | 21.66418 | 110.95451 | 33979 ft | 418 kts | 275° |
| 2026-04-15 13:26 | 21.67484 | 110.85435 | 33977 ft | 418 kts | 275° |
| 2026-04-15 13:27 | 21.70053 | 110.60611 | 33966 ft | 418 kts | 275° |
| 2026-04-15 13:27 | 21.72605 | 110.35741 | 33949 ft | 418 kts | 274° |
| 2026-04-15 13:28 | 21.75098 | 110.11065 | 33950 ft | 418 kts | 274° |
| 2026-04-15 13:28 | 21.77560 | 109.86256 | 33945 ft | 416 kts | 274° |
| 2026-04-15 13:29 | 21.79982 | 109.61480 | 33924 ft | 416 kts | 274° |
| 2026-04-15 13:29 | 21.82365 | 109.36737 | 33916 ft | 416 kts | 274° |
| 2026-04-15 13:30 | 21.84887 | 109.11951 | 33870 ft | 420 kts | 283° |
| 2026-04-15 13:30 | 21.91374 | 109.01380 | 33949 ft | 433 kts | 306° |
| 2026-04-15 13:30 | 21.99101 | 108.91433 | 33926 ft | 433 kts | 306° |
| 2026-04-15 13:31 | 22.13605 | 108.72822 | 33908 ft | 431 kts | 306° |
| 2026-04-15 13:31 | 22.17470 | 108.67877 | 33905 ft | 431 kts | 306° |
| 2026-04-15 13:32 | 22.21336 | 108.62930 | 33907 ft | 431 kts | 306° |
| 2026-04-15 13:32 | 22.25198 | 108.57986 | 33899 ft | 431 kts | 306° |
| 2026-04-15 13:33 | 22.32758 | 108.48287 | 33904 ft | 430 kts | 306° |
| 2026-04-15 13:33 | 22.46353 | 108.30813 | 33909 ft | 429 kts | 306° |
| 2026-04-15 13:34 | 22.61770 | 108.11175 | 33914 ft | 429 kts | 308° |
| 2026-04-15 13:34 | 22.78162 | 107.92656 | 33889 ft | 427 kts | 308° |
| 2026-04-15 13:35 | 22.94141 | 107.74304 | 33876 ft | 426 kts | 308° |
| 2026-04-15 13:35 | 23.10405 | 107.55646 | 33880 ft | 425 kts | 308° |
| 2026-04-15 13:36 | 23.26720 | 107.36909 | 33874 ft | 426 kts | 308° |
| 2026-04-15 13:36 | 23.42988 | 107.18118 | 33885 ft | 426 kts | 307° |
| 2026-04-15 13:37 | 23.59095 | 106.99262 | 33880 ft | 424 kts | 307° |
| 2026-04-15 13:37 | 23.75120 | 106.80451 | 33878 ft | 422 kts | 307° |
| 2026-04-15 13:38 | 23.90925 | 106.61589 | 33821 ft | 415 kts | 298° |
| 2026-04-15 13:38 | 23.94363 | 106.49974 | 33847 ft | 401 kts | 278° |
| 2026-04-15 13:38 | 23.96824 | 106.38078 | 33841 ft | 402 kts | 278° |
| 2026-04-15 13:39 | 24.01629 | 106.14184 | 33850 ft | 401 kts | 278° |
| 2026-04-15 13:39 | 24.06384 | 105.90391 | 33847 ft | 398 kts | 278° |
| 2026-04-15 13:40 | 24.11123 | 105.66766 | 33856 ft | 396 kts | 279° |
| 2026-04-15 13:40 | 24.16875 | 105.43566 | 33845 ft | 393 kts | 279° |
| 2026-04-15 13:41 | 24.22476 | 105.20417 | 33849 ft | 392 kts | 279° |
| 2026-04-15 13:41 | 24.27243 | 104.97330 | 33848 ft | 391 kts | 278° |
| 2026-04-15 13:42 | 24.32091 | 104.74019 | 33865 ft | 391 kts | 278° |
| 2026-04-15 13:42 | 24.37284 | 104.51045 | 33908 ft | 392 kts | 279° |
| 2026-04-15 13:43 | 24.42430 | 104.27852 | 33977 ft | 393 kts | 279° |
| 2026-04-15 13:43 | 24.47294 | 104.05880 | 33906 ft | 391 kts | 279° |
| 2026-04-15 13:44 | 24.48133 | 104.02071 | 34029 ft | 389 kts | 278° |
| 2026-04-15 13:44 | 24.48771 | 103.99200 | 34011 ft | 385 kts | 279° |
| 2026-04-15 13:44 | 24.50034 | 103.93490 | 34007 ft | 386 kts | 278° |
| 2026-04-15 13:45 | 24.51274 | 103.87726 | 34028 ft | 389 kts | 278° |
| 2026-04-15 13:47 | 24.68061 | 103.43028 | 34131 ft | 395 kts | 289° |
| 2026-04-15 13:47 | 24.77621 | 103.21330 | 34141 ft | 393 kts | 289° |
| 2026-04-15 13:48 | 24.87122 | 102.99703 | 34188 ft | 391 kts | 288° |
| 2026-04-15 13:48 | 24.96607 | 102.78076 | 34220 ft | 393 kts | 289° |
| 2026-04-15 13:49 | 25.06186 | 102.56502 | 34179 ft | 391 kts | 289° |
| 2026-04-15 13:49 | 25.07798 | 102.45188 | 34169 ft | 373 kts | 263° |
| 2026-04-15 13:49 | 25.07218 | 102.33764 | 34161 ft | 373 kts | 264° |
| 2026-04-15 13:50 | 25.06011 | 102.10921 | 34112 ft | 373 kts | 264° |
| 2026-04-15 13:50 | 25.04755 | 101.87993 | 34130 ft | 378 kts | 264° |
| 2026-04-15 13:51 | 25.03478 | 101.65122 | 34099 ft | 375 kts | 264° |
| 2026-04-15 13:51 | 25.02142 | 101.42116 | 34077 ft | 377 kts | 265° |
| 2026-04-15 13:52 | 25.00806 | 101.19068 | 34059 ft | 377 kts | 264° |
| 2026-04-15 13:52 | 24.99408 | 100.96055 | 34087 ft | 376 kts | 264° |
| 2026-04-15 13:53 | 24.97972 | 100.72930 | 34067 ft | 378 kts | 264° |
| 2026-04-15 13:53 | 24.97748 | 100.49853 | 34027 ft | 378 kts | 271° |
| 2026-04-15 13:54 | 24.98408 | 100.38828 | 34018 ft | 380 kts | 271° |
| 2026-04-15 13:54 | 24.98700 | 100.33979 | 34020 ft | 382 kts | 271° |
| 2026-04-15 13:55 | 25.00052 | 100.28331 | 34023 ft | 396 kts | 299° |
| 2026-04-15 13:55 | 25.02831 | 100.25565 | 34023 ft | 420 kts | 326° |
| 2026-04-15 13:55 | 25.04672 | 100.24813 | 34018 ft | 434 kts | 340° |
| 2026-04-15 13:56 | 25.07753 | 100.24614 | 34018 ft | 452 kts | 355° |
| 2026-04-15 13:56 | 25.10905 | 100.24903 | 34015 ft | 457 kts | 358° |
| 2026-04-15 13:56 | 25.17255 | 100.25865 | 34013 ft | 462 kts | 1° |
| 2026-04-15 13:57 | 25.23623 | 100.26897 | 34014 ft | 463 kts | 360° |
| 2026-04-15 13:57 | 25.30016 | 100.27787 | 34028 ft | 463 kts | 359° |
| 2026-04-15 13:58 | 25.36430 | 100.28614 | 34034 ft | 464 kts | 359° |
| 2026-04-15 13:58 | 25.42836 | 100.29449 | 34036 ft | 464 kts | 359° |
| 2026-04-15 13:59 | 25.49244 | 100.30309 | 34042 ft | 464 kts | 360° |
| 2026-04-15 13:59 | 25.55653 | 100.31173 | 34037 ft | 463 kts | 360° |
| 2026-04-15 14:00 | 25.62048 | 100.32026 | 34035 ft | 463 kts | 0° |
| 2026-04-15 14:00 | 25.68311 | 100.33859 | 34028 ft | 474 kts | 13° |
| 2026-04-15 14:01 | 25.74599 | 100.36307 | 33628 ft | 475 kts | 13° |
| 2026-04-15 14:01 | 25.77661 | 100.37503 | 33381 ft | 472 kts | 13° |
| 2026-04-15 14:01 | 25.80750 | 100.38712 | 33125 ft | 469 kts | 13° |
| 2026-04-15 14:02 | 25.83819 | 100.39912 | 32864 ft | 467 kts | 13° |
| 2026-04-15 14:02 | 25.86884 | 100.41105 | 32602 ft | 465 kts | 13° |
| 2026-04-15 14:02 | 25.89927 | 100.42288 | 32352 ft | 462 kts | 13° |
| 2026-04-15 14:02 | 25.92957 | 100.43467 | 32105 ft | 461 kts | 13° |
| 2026-04-15 14:03 | 25.95974 | 100.44642 | 31860 ft | 459 kts | 13° |
| 2026-04-15 14:03 | 25.98980 | 100.45813 | 31615 ft | 456 kts | 13° |
| 2026-04-15 14:03 | 26.01973 | 100.46978 | 31364 ft | 454 kts | 13° |
| 2026-04-15 14:03 | 26.04947 | 100.48140 | 31115 ft | 452 kts | 13° |
| 2026-04-15 14:04 | 26.07906 | 100.49300 | 30886 ft | 450 kts | 13° |
| 2026-04-15 14:04 | 26.10855 | 100.50453 | 30648 ft | 448 kts | 13° |
| 2026-04-15 14:04 | 26.13789 | 100.51598 | 30415 ft | 446 kts | 13° |
| 2026-04-15 14:04 | 26.16712 | 100.52741 | 30178 ft | 444 kts | 13° |
| 2026-04-15 14:05 | 26.19624 | 100.53877 | 29891 ft | 443 kts | 13° |
| 2026-04-15 14:05 | 26.22522 | 100.55008 | 29468 ft | 440 kts | 13° |
| 2026-04-15 14:05 | 26.25399 | 100.56137 | 29066 ft | 436 kts | 14° |
| 2026-04-15 14:05 | 26.28248 | 100.57255 | 28664 ft | 432 kts | 14° |
| 2026-04-15 14:06 | 26.31083 | 100.58364 | 28134 ft | 430 kts | 13° |
| 2026-04-15 14:06 | 26.33899 | 100.59468 | 27609 ft | 428 kts | 13° |
| 2026-04-15 14:06 | 26.36693 | 100.60568 | 27106 ft | 425 kts | 14° |
| 2026-04-15 14:06 | 26.39475 | 100.61658 | 26599 ft | 423 kts | 14° |
| 2026-04-15 14:07 | 26.42241 | 100.62737 | 26134 ft | 420 kts | 14° |
| 2026-04-15 14:07 | 26.44997 | 100.63781 | 25654 ft | 415 kts | 10° |
| 2026-04-15 14:07 | 26.47782 | 100.64156 | 25348 ft | 394 kts | 351° |
| 2026-04-15 14:07 | 26.50394 | 100.63587 | 25090 ft | 375 kts | 334° |
| 2026-04-15 14:08 | 26.52635 | 100.62247 | 24728 ft | 361 kts | 317° |
| 2026-04-15 14:08 | 26.54376 | 100.60298 | 24283 ft | 351 kts | 301° |
| 2026-04-15 14:08 | 26.55511 | 100.57928 | 23872 ft | 344 kts | 287° |
| 2026-04-15 14:08 | 26.56220 | 100.55381 | 23413 ft | 342 kts | 285° |
| 2026-04-15 14:09 | 26.56915 | 100.52845 | 22909 ft | 341 kts | 285° |
| 2026-04-15 14:09 | 26.57776 | 100.50389 | 22428 ft | 341 kts | 299° |
| 2026-04-15 14:09 | 26.59380 | 100.48436 | 22012 ft | 347 kts | 321° |
| 2026-04-15 14:09 | 26.61603 | 100.47350 | 21525 ft | 357 kts | 345° |
| 2026-04-15 14:10 | 26.64107 | 100.47418 | 21057 ft | 369 kts | 8° |
| 2026-04-15 14:10 | 26.66588 | 100.48218 | 20603 ft | 371 kts | 12° |
| 2026-04-15 14:10 | 26.69055 | 100.49070 | 20178 ft | 370 kts | 12° |
| 2026-04-15 14:10 | 26.71476 | 100.49917 | 19781 ft | 369 kts | 12° |
| 2026-04-15 14:11 | 26.73918 | 100.50771 | 19417 ft | 367 kts | 12° |
| 2026-04-15 14:11 | 26.76344 | 100.51615 | 19027 ft | 365 kts | 12° |
| 2026-04-15 14:11 | 26.78765 | 100.52452 | 18661 ft | 363 kts | 12° |
| 2026-04-15 14:11 | 26.81171 | 100.53281 | 18327 ft | 360 kts | 12° |
| 2026-04-15 14:12 | 26.83528 | 100.54093 | 18209 ft | 348 kts | 12° |
| 2026-04-15 14:12 | 26.85808 | 100.54878 | 18083 ft | 339 kts | 12° |
| 2026-04-15 14:12 | 26.88046 | 100.55519 | 18032 ft | 323 kts | 358° |
| 2026-04-15 14:12 | 26.90136 | 100.55154 | 18002 ft | 292 kts | 327° |
| 2026-04-15 14:13 | 26.91633 | 100.53793 | 17883 ft | 269 kts | 300° |
| 2026-04-15 14:13 | 26.92378 | 100.51933 | 17758 ft | 257 kts | 285° |
| 2026-04-15 14:13 | 26.92906 | 100.50059 | 17596 ft | 249 kts | 285° |
| 2026-04-15 14:13 | 26.93429 | 100.48225 | 17365 ft | 245 kts | 285° |
| 2026-04-15 14:14 | 26.93947 | 100.46414 | 17087 ft | 243 kts | 285° |
| 2026-04-15 14:14 | 26.94460 | 100.44618 | 16787 ft | 240 kts | 285° |
| 2026-04-15 14:14 | 26.94966 | 100.42844 | 16386 ft | 238 kts | 285° |
| 2026-04-15 14:14 | 26.95466 | 100.41085 | 15974 ft | 235 kts | 285° |
| 2026-04-15 14:15 | 26.95960 | 100.39343 | 15539 ft | 233 kts | 285° |
| 2026-04-15 14:15 | 26.96444 | 100.37625 | 15060 ft | 228 kts | 283° |
| 2026-04-15 14:15 | 26.96486 | 100.35908 | 14441 ft | 223 kts | 256° |
| 2026-04-15 14:15 | 26.95725 | 100.34408 | 13812 ft | 229 kts | 226° |
| 2026-04-15 14:16 | 26.94317 | 100.33560 | 13323 ft | 236 kts | 198° |
| 2026-04-15 14:16 | 26.92740 | 100.33191 | 13111 ft | 221 kts | 200° |
| 2026-04-15 14:16 | 26.91333 | 100.32730 | 12968 ft | 202 kts | 203° |
| 2026-04-15 14:16 | 26.90015 | 100.32217 | 12565 ft | 200 kts | 207° |
| 2026-04-15 14:17 | 26.88683 | 100.31677 | 11944 ft | 206 kts | 203° |
| 2026-04-15 14:17 | 26.87302 | 100.31179 | 11489 ft | 209 kts | 202° |
| 2026-04-15 14:17 | 26.85922 | 100.30702 | 11143 ft | 205 kts | 201° |
| 2026-04-15 14:17 | 26.84581 | 100.30243 | 10834 ft | 199 kts | 201° |
| 2026-04-15 14:18 | 26.83288 | 100.29802 | 10546 ft | 190 kts | 202° |
| 2026-04-15 14:18 | 26.82038 | 100.29375 | 10278 ft | 184 kts | 202° |
| 2026-04-15 14:18 | 26.80858 | 100.28971 | 10019 ft | 174 kts | 201° |
| 2026-04-15 14:18 | 26.79733 | 100.28587 | 9778 ft | 165 kts | 202° |
| 2026-04-15 14:19 | 26.78645 | 100.28213 | 9523 ft | 163 kts | 201° |
| 2026-04-15 14:19 | 26.77569 | 100.27845 | 9310 ft | 161 kts | 200° |
| 2026-04-15 14:19 | 26.76516 | 100.27485 | 9110 ft | 160 kts | 200° |
| 2026-04-15 14:19 | 26.75450 | 100.27120 | 8906 ft | 161 kts | 200° |
| 2026-04-15 14:20 | 26.74377 | 100.26753 | 8673 ft | 161 kts | 198° |
| 2026-04-15 14:20 | 26.73314 | 100.26389 | 8420 ft | 160 kts | 199° |
| 2026-04-15 14:20 | 26.72280 | 100.26039 | 8139 ft | 160 kts | 200° |
| 2026-04-15 14:20 | 26.71224 | 100.25678 | 7861 ft | 158 kts | 199° |
| 2026-04-15 14:21 | 26.70173 | 100.25320 | 7600 ft | 159 kts | 200° |
| 2026-04-15 14:21 | 26.69118 | 100.24963 | 7320 ft | 157 kts | 200° |
| 2026-04-15 14:21 | 26.68141 | 100.24628 | 7258 ft | 133 kts | 199° |
| 2026-04-15 14:21 | 26.67194 | 100.24277 | 7346 ft | 162 kts | 201° |
| 2026-04-15 14:22 | 26.66068 | 100.23910 | 8089 ft | 171 kts | 198° |
| 2026-04-15 14:22 | 26.64926 | 100.23515 | 8889 ft | 173 kts | 200° |
| 2026-04-15 14:22 | 26.63728 | 100.23098 | 9058 ft | 191 kts | 200° |
| 2026-04-15 14:22 | 26.62450 | 100.22512 | 9179 ft | 208 kts | 214° |
| 2026-04-15 14:23 | 26.61129 | 100.21649 | 9337 ft | 231 kts | 213° |
| 2026-04-15 14:23 | 26.59704 | 100.20730 | 9776 ft | 240 kts | 213° |
| 2026-04-15 14:23 | 26.58288 | 100.19827 | 10575 ft | 232 kts | 213° |
| 2026-04-15 14:23 | 26.56881 | 100.18930 | 11281 ft | 232 kts | 214° |
| 2026-04-15 14:24 | 26.55481 | 100.18036 | 11942 ft | 232 kts | 214° |
| 2026-04-15 14:24 | 26.54081 | 100.17142 | 12619 ft | 232 kts | 214° |
| 2026-04-15 14:24 | 26.52595 | 100.16396 | 13260 ft | 241 kts | 199° |
| 2026-04-15 14:24 | 26.50879 | 100.16412 | 13851 ft | 259 kts | 169° |
| 2026-04-15 14:25 | 26.49333 | 100.17474 | 14380 ft | 277 kts | 135° |
| 2026-04-15 14:25 | 26.48475 | 100.19422 | 14908 ft | 287 kts | 103° |
| 2026-04-15 14:25 | 26.48139 | 100.21668 | 15350 ft | 294 kts | 99° |
| 2026-04-15 14:25 | 26.47882 | 100.23908 | 15450 ft | 295 kts | 98° |
| 2026-04-15 14:26 | 26.47072 | 100.31654 | 15398 ft | 292 kts | 98° |
| 2026-04-15 14:26 | 26.47414 | 100.37790 | 15393 ft | 297 kts | 65° |
| 2026-04-15 14:26 | 26.48387 | 100.39792 | 15436 ft | 293 kts | 51° |
| 2026-04-15 14:26 | 26.50409 | 100.42140 | 15464 ft | 283 kts | 30° |
| 2026-04-15 14:27 | 26.53888 | 100.43920 | 15453 ft | 271 kts | 9° |
| 2026-04-15 14:27 | 26.57518 | 100.45147 | 15444 ft | 272 kts | 10° |
| 2026-04-15 14:27 | 26.61143 | 100.46392 | 15443 ft | 273 kts | 10° |
| 2026-04-15 14:27 | 26.64762 | 100.47633 | 15440 ft | 273 kts | 10° |
| 2026-04-15 14:28 | 26.68392 | 100.48879 | 15453 ft | 273 kts | 10° |
| 2026-04-15 14:28 | 26.72747 | 100.50375 | 15502 ft | 275 kts | 11° |
| 2026-04-15 14:28 | 26.79952 | 100.52853 | 15489 ft | 268 kts | 11° |
| 2026-04-15 14:28 | 26.84300 | 100.54342 | 15439 ft | 272 kts | 11° |
| 2026-04-15 14:29 | 26.86112 | 100.54797 | 15391 ft | 263 kts | 358° |
| 2026-04-15 14:29 | 26.88740 | 100.54450 | 15143 ft | 243 kts | 335° |
| 2026-04-15 14:29 | 26.91735 | 100.52205 | 15033 ft | 233 kts | 306° |
| 2026-04-15 14:29 | 26.93374 | 100.48398 | 14914 ft | 228 kts | 285° |
| 2026-04-15 14:30 | 26.94338 | 100.45011 | 14811 ft | 228 kts | 286° |
| 2026-04-15 14:30 | 26.95190 | 100.42034 | 14249 ft | 222 kts | 286° |
| 2026-04-15 14:30 | 26.95667 | 100.40367 | 13920 ft | 224 kts | 286° |
| 2026-04-15 14:30 | 26.96142 | 100.38710 | 13665 ft | 223 kts | 286° |
| 2026-04-15 14:31 | 26.96560 | 100.37045 | 13391 ft | 221 kts | 275° |
| 2026-04-15 14:31 | 26.96337 | 100.35368 | 13103 ft | 221 kts | 246° |
| 2026-04-15 14:31 | 26.95342 | 100.34066 | 12922 ft | 222 kts | 217° |
| 2026-04-15 14:31 | 26.93928 | 100.33430 | 12806 ft | 215 kts | 202° |
| 2026-04-15 14:32 | 26.92519 | 100.32957 | 12590 ft | 210 kts | 202° |
| 2026-04-15 14:32 | 26.91130 | 100.32485 | 12301 ft | 208 kts | 201° |
| 2026-04-15 14:32 | 26.89744 | 100.32010 | 11984 ft | 209 kts | 202° |
| 2026-04-15 14:32 | 26.88359 | 100.31536 | 11688 ft | 207 kts | 201° |
| 2026-04-15 14:33 | 26.86970 | 100.31060 | 11368 ft | 210 kts | 201° |
| 2026-04-15 14:33 | 26.85566 | 100.30579 | 11053 ft | 211 kts | 201° |
| 2026-04-15 14:33 | 26.84191 | 100.30109 | 10744 ft | 206 kts | 202° |
| 2026-04-15 14:33 | 26.82846 | 100.29650 | 10450 ft | 198 kts | 201° |
| 2026-04-15 14:34 | 26.81552 | 100.29208 | 10166 ft | 191 kts | 201° |
| 2026-04-15 14:34 | 26.80311 | 100.28784 | 9919 ft | 182 kts | 201° |
| 2026-04-15 14:34 | 26.79136 | 100.28381 | 9643 ft | 173 kts | 202° |
| 2026-04-15 14:34 | 26.78006 | 100.27994 | 9381 ft | 168 kts | 202° |
| 2026-04-15 14:35 | 26.76915 | 100.27622 | 9138 ft | 160 kts | 201° |
| 2026-04-15 14:35 | 26.75856 | 100.27260 | 8950 ft | 160 kts | 199° |
| 2026-04-15 14:35 | 26.74791 | 100.26897 | 8790 ft | 161 kts | 198° |
| 2026-04-15 14:35 | 26.73723 | 100.26531 | 8523 ft | 159 kts | 199° |
| 2026-04-15 14:36 | 26.72670 | 100.26172 | 8233 ft | 158 kts | 200° |
| 2026-04-15 14:36 | 26.71622 | 100.25813 | 7956 ft | 158 kts | 201° |
| 2026-04-15 14:36 | 26.70583 | 100.25458 | 7682 ft | 155 kts | 200° |
| 2026-04-15 14:36 | 26.69540 | 100.25104 | 7429 ft | 157 kts | 200° |
| 2026-04-15 14:37 | 26.68519 | 100.24756 | 7262 ft | 144 kts | 200° |
| 2026-04-15 14:37 | 26.67757 | 100.24494 | 7253 ft | 74 kts | 197° |
| 2026-04-15 14:37 | 26.67462 | 100.24398 | 7254 ft | 35 kts | 196° |
| 2026-04-15 14:37 | 26.67239 | 100.24319 | 7254 ft | 32 kts | 197° |
| 2026-04-15 14:38 | 26.67030 | 100.24254 | 7256 ft | 30 kts | 183° |
| 2026-04-15 14:38 | 26.66871 | 100.24275 | 7257 ft | 12 kts | 166° |
| 2026-04-15 14:38 | 26.66809 | 100.24306 | 7258 ft | 9 kts | 118° |
| 2026-04-15 14:38 | 26.66827 | 100.24361 | 7255 ft | 7 kts | 27° |
| 2026-04-15 14:39 | 26.66869 | 100.24376 | 7255 ft | 5 kts | 15° |
| 2026-04-15 14:39 | 26.66906 | 100.24388 | 7256 ft | 7 kts | 17° |
| 2026-04-15 14:39 | 26.66952 | 100.24403 | 7255 ft | 6 kts | 17° |
| 2026-04-15 14:39 | 26.66987 | 100.24415 | 7255 ft | 4 kts | 17° |
| 2026-04-15 14:40 | 26.67026 | 100.24429 | 7254 ft | 7 kts | 18° |
| 2026-04-15 14:40 | 26.67050 | 100.24479 | 7258 ft | 8 kts | 94° |
| 2026-04-15 14:40 | 26.67040 | 100.24514 | 7254 ft | 6 kts | 107° |
| 2026-04-15 14:40 | 26.67024 | 100.24567 | 7256 ft | 5 kts | 118° |
| 2026-04-15 14:41 | 26.67002 | 100.24581 | 7256 ft | 3 kts | 167° |
| 2026-04-15 14:41 | 26.66989 | 100.24581 | 7253 ft | 2 kts | 185° |
| 2026-04-15 14:41 | 26.66970 | 100.24575 | 7254 ft | 2 kts | 197° |
| 2026-04-15 14:41 | 26.66964 | 100.24573 | 7254 ft | 1 kts | 197° |
| 2026-04-15 14:42 | 26.66962 | 100.24572 | 7254 ft | 0 kts | 197° |